sensor_id;sensor_type;location;lat;lon;timestamp;P1;durP1;ratioP1;P2;durP2;ratioP2
65831;SDS011;52593;42.648;23.332;2023-05-29T00:01:25;7.57;;;3.50;;
65831;SDS011;52593;42.648;23.332;2023-05-29T00:03:51;8.97;;;3.60;;
65831;SDS011;52593;42.648;23.332;2023-05-29T00:06:16;8.57;;;3.78;;
65831;SDS011;52593;42.648;23.332;2023-05-29T00:08:43;9.93;;;3.92;;
65831;SDS011;52593;42.648;23.332;2023-05-29T00:11:09;7.87;;;3.53;;
65831;SDS011;52593;42.648;23.332;2023-05-29T00:13:34;7.73;;;3.60;;
65831;SDS011;52593;42.648;23.332;2023-05-29T00:15:59;8.25;;;3.50;;
65831;SDS011;52593;42.648;23.332;2023-05-29T00:18:25;8.80;;;4.43;;
65831;SDS011;52593;42.648;23.332;2023-05-29T00:20:51;8.93;;;3.67;;
65831;SDS011;52593;42.648;23.332;2023-05-29T00:23:17;9.25;;;3.85;;
65831;SDS011;52593;42.648;23.332;2023-05-29T00:25:43;9.43;;;4.30;;
65831;SDS011;52593;42.648;23.332;2023-05-29T00:28:09;9.77;;;4.17;;
65831;SDS011;52593;42.648;23.332;2023-05-29T00:30:34;11.05;;;4.35;;
65831;SDS011;52593;42.648;23.332;2023-05-29T00:33:00;9.77;;;3.80;;
65831;SDS011;52593;42.648;23.332;2023-05-29T00:35:26;9.57;;;3.83;;
65831;SDS011;52593;42.648;23.332;2023-05-29T00:37:51;9.93;;;4.00;;
65831;SDS011;52593;42.648;23.332;2023-05-29T00:40:17;11.70;;;4.17;;
65831;SDS011;52593;42.648;23.332;2023-05-29T00:42:42;9.43;;;4.10;;
65831;SDS011;52593;42.648;23.332;2023-05-29T00:45:08;10.20;;;4.30;;
65831;SDS011;52593;42.648;23.332;2023-05-29T00:47:33;7.45;;;3.83;;
65831;SDS011;52593;42.648;23.332;2023-05-29T00:49:59;16.00;;;7.25;;
65831;SDS011;52593;42.648;23.332;2023-05-29T00:52:26;14.23;;;5.17;;
65831;SDS011;52593;42.648;23.332;2023-05-29T00:54:52;11.05;;;4.93;;
65831;SDS011;52593;42.648;23.332;2023-05-29T00:57:18;9.63;;;4.20;;
65831;SDS011;52593;42.648;23.332;2023-05-29T00:59:44;10.03;;;4.20;;
65831;SDS011;52593;42.648;23.332;2023-05-29T01:02:11;9.63;;;4.45;;
65831;SDS011;52593;42.648;23.332;2023-05-29T01:04:39;11.02;;;4.22;;
65831;SDS011;52593;42.648;23.332;2023-05-29T01:07:04;10.10;;;4.20;;
65831;SDS011;52593;42.648;23.332;2023-05-29T01:09:30;10.03;;;4.80;;
65831;SDS011;52593;42.648;23.332;2023-05-29T01:12:11;10.90;;;4.15;;
65831;SDS011;52593;42.648;23.332;2023-05-29T01:20:38;9.13;;;4.20;;
65831;SDS011;52593;42.648;23.332;2023-05-29T01:29:00;10.88;;;4.25;;
65831;SDS011;52593;42.648;23.332;2023-05-29T01:31:27;8.18;;;4.10;;
65831;SDS011;52593;42.648;23.332;2023-05-29T01:33:54;10.47;;;4.30;;
65831;SDS011;52593;42.648;23.332;2023-05-29T01:36:21;10.93;;;4.40;;
65831;SDS011;52593;42.648;23.332;2023-05-29T01:38:47;10.52;;;4.28;;
65831;SDS011;52593;42.648;23.332;2023-05-29T01:41:14;11.53;;;4.03;;
65831;SDS011;52593;42.648;23.332;2023-05-29T01:43:42;10.45;;;4.30;;
65831;SDS011;52593;42.648;23.332;2023-05-29T01:46:10;10.07;;;4.30;;
65831;SDS011;52593;42.648;23.332;2023-05-29T01:48:37;9.73;;;4.18;;
65831;SDS011;52593;42.648;23.332;2023-05-29T01:51:03;8.80;;;4.00;;
65831;SDS011;52593;42.648;23.332;2023-05-29T01:53:28;11.02;;;4.32;;
65831;SDS011;52593;42.648;23.332;2023-05-29T01:55:54;9.97;;;4.50;;
65831;SDS011;52593;42.648;23.332;2023-05-29T01:58:20;11.00;;;4.30;;
65831;SDS011;52593;42.648;23.332;2023-05-29T02:00:46;11.87;;;4.63;;
65831;SDS011;52593;42.648;23.332;2023-05-29T02:03:12;11.93;;;4.70;;
65831;SDS011;52593;42.648;23.332;2023-05-29T02:05:38;10.23;;;4.53;;
65831;SDS011;52593;42.648;23.332;2023-05-29T02:08:03;10.45;;;5.00;;
65831;SDS011;52593;42.648;23.332;2023-05-29T02:10:29;10.13;;;4.37;;
65831;SDS011;52593;42.648;23.332;2023-05-29T02:12:56;9.70;;;4.68;;
65831;SDS011;52593;42.648;23.332;2023-05-29T02:15:22;8.40;;;4.27;;
65831;SDS011;52593;42.648;23.332;2023-05-29T02:17:47;7.93;;;4.17;;
65831;SDS011;52593;42.648;23.332;2023-05-29T02:20:14;11.10;;;4.70;;
65831;SDS011;52593;42.648;23.332;2023-05-29T02:22:40;9.45;;;4.78;;
65831;SDS011;52593;42.648;23.332;2023-05-29T02:25:06;11.17;;;4.93;;
65831;SDS011;52593;42.648;23.332;2023-05-29T02:27:32;11.32;;;5.10;;
65831;SDS011;52593;42.648;23.332;2023-05-29T02:29:57;11.87;;;4.93;;
65831;SDS011;52593;42.648;23.332;2023-05-29T02:32:23;11.27;;;5.43;;
65831;SDS011;52593;42.648;23.332;2023-05-29T02:34:49;10.37;;;4.80;;
65831;SDS011;52593;42.648;23.332;2023-05-29T02:37:14;11.02;;;4.70;;
65831;SDS011;52593;42.648;23.332;2023-05-29T02:39:40;10.50;;;4.83;;
65831;SDS011;52593;42.648;23.332;2023-05-29T02:42:05;11.73;;;4.47;;
65831;SDS011;52593;42.648;23.332;2023-05-29T02:44:31;10.85;;;4.90;;
65831;SDS011;52593;42.648;23.332;2023-05-29T02:46:56;9.10;;;4.77;;
65831;SDS011;52593;42.648;23.332;2023-05-29T02:49:22;10.67;;;4.60;;
65831;SDS011;52593;42.648;23.332;2023-05-29T02:51:47;9.73;;;4.63;;
65831;SDS011;52593;42.648;23.332;2023-05-29T02:54:12;10.83;;;5.03;;
65831;SDS011;52593;42.648;23.332;2023-05-29T02:56:38;10.50;;;4.82;;
65831;SDS011;52593;42.648;23.332;2023-05-29T02:59:04;11.67;;;5.07;;
65831;SDS011;52593;42.648;23.332;2023-05-29T03:01:29;10.68;;;4.75;;
65831;SDS011;52593;42.648;23.332;2023-05-29T03:03:55;11.10;;;5.13;;
65831;SDS011;52593;42.648;23.332;2023-05-29T03:06:21;13.10;;;5.13;;
65831;SDS011;52593;42.648;23.332;2023-05-29T03:08:46;11.07;;;5.20;;
65831;SDS011;52593;42.648;23.332;2023-05-29T03:11:13;10.63;;;5.00;;
65831;SDS011;52593;42.648;23.332;2023-05-29T03:13:40;11.63;;;4.93;;
65831;SDS011;52593;42.648;23.332;2023-05-29T03:16:05;11.75;;;5.65;;
65831;SDS011;52593;42.648;23.332;2023-05-29T03:18:33;13.07;;;5.47;;
65831;SDS011;52593;42.648;23.332;2023-05-29T03:20:59;11.03;;;5.53;;
65831;SDS011;52593;42.648;23.332;2023-05-29T03:23:24;14.68;;;5.50;;
65831;SDS011;52593;42.648;23.332;2023-05-29T03:25:50;12.30;;;5.70;;
65831;SDS011;52593;42.648;23.332;2023-05-29T03:28:16;10.75;;;5.38;;
65831;SDS011;52593;42.648;23.332;2023-05-29T03:30:41;11.77;;;5.23;;
65831;SDS011;52593;42.648;23.332;2023-05-29T03:33:06;11.67;;;5.50;;
65831;SDS011;52593;42.648;23.332;2023-05-29T03:35:32;11.77;;;5.20;;
65831;SDS011;52593;42.648;23.332;2023-05-29T03:37:58;11.93;;;5.22;;
65831;SDS011;52593;42.648;23.332;2023-05-29T03:40:23;13.00;;;5.73;;
65831;SDS011;52593;42.648;23.332;2023-05-29T03:42:49;13.73;;;5.55;;
65831;SDS011;52593;42.648;23.332;2023-05-29T03:45:14;11.13;;;5.20;;
65831;SDS011;52593;42.648;23.332;2023-05-29T03:47:40;12.70;;;5.37;;
65831;SDS011;52593;42.648;23.332;2023-05-29T03:50:05;11.30;;;5.03;;
65831;SDS011;52593;42.648;23.332;2023-05-29T03:52:32;9.82;;;4.72;;
65831;SDS011;52593;42.648;23.332;2023-05-29T03:54:58;10.23;;;4.97;;
65831;SDS011;52593;42.648;23.332;2023-05-29T03:57:23;13.27;;;4.77;;
65831;SDS011;52593;42.648;23.332;2023-05-29T03:59:48;11.33;;;4.93;;
65831;SDS011;52593;42.648;23.332;2023-05-29T04:02:14;12.35;;;5.38;;
65831;SDS011;52593;42.648;23.332;2023-05-29T04:04:39;12.93;;;5.07;;
65831;SDS011;52593;42.648;23.332;2023-05-29T04:07:05;11.07;;;5.07;;
65831;SDS011;52593;42.648;23.332;2023-05-29T04:09:32;9.60;;;4.90;;
65831;SDS011;52593;42.648;23.332;2023-05-29T04:11:57;10.32;;;4.68;;
65831;SDS011;52593;42.648;23.332;2023-05-29T04:14:24;13.27;;;5.22;;
65831;SDS011;52593;42.648;23.332;2023-05-29T04:16:50;10.17;;;4.67;;
65831;SDS011;52593;42.648;23.332;2023-05-29T04:19:15;12.03;;;5.10;;
65831;SDS011;52593;42.648;23.332;2023-05-29T04:21:40;12.20;;;4.67;;
65831;SDS011;52593;42.648;23.332;2023-05-29T04:24:06;10.82;;;4.32;;
65831;SDS011;52593;42.648;23.332;2023-05-29T04:26:31;13.17;;;4.60;;
65831;SDS011;52593;42.648;23.332;2023-05-29T04:28:57;13.82;;;4.40;;
65831;SDS011;52593;42.648;23.332;2023-05-29T04:31:26;17.93;;;4.30;;
65831;SDS011;52593;42.648;23.332;2023-05-29T04:33:52;14.85;;;4.75;;
65831;SDS011;52593;42.648;23.332;2023-05-29T04:36:21;13.82;;;4.68;;
65831;SDS011;52593;42.648;23.332;2023-05-29T04:38:50;14.73;;;7.10;;
65831;SDS011;52593;42.648;23.332;2023-05-29T04:41:17;18.33;;;7.70;;
65831;SDS011;52593;42.648;23.332;2023-05-29T04:43:42;20.40;;;7.00;;
65831;SDS011;52593;42.648;23.332;2023-05-29T04:46:08;15.93;;;6.50;;
65831;SDS011;52593;42.648;23.332;2023-05-29T04:48:37;12.90;;;6.05;;
65831;SDS011;52593;42.648;23.332;2023-05-29T04:51:05;16.83;;;6.32;;
65831;SDS011;52593;42.648;23.332;2023-05-29T04:53:31;15.67;;;6.13;;
65831;SDS011;52593;42.648;23.332;2023-05-29T04:55:57;16.88;;;5.80;;
65831;SDS011;52593;42.648;23.332;2023-05-29T04:58:25;11.37;;;5.17;;
65831;SDS011;52593;42.648;23.332;2023-05-29T05:00:51;18.55;;;5.28;;
65831;SDS011;52593;42.648;23.332;2023-05-29T05:03:16;13.00;;;4.93;;
65831;SDS011;52593;42.648;23.332;2023-05-29T05:05:42;9.43;;;4.43;;
65831;SDS011;52593;42.648;23.332;2023-05-29T05:08:08;9.65;;;3.60;;
65831;SDS011;52593;42.648;23.332;2023-05-29T05:10:37;15.73;;;4.72;;
65831;SDS011;52593;42.648;23.332;2023-05-29T05:13:02;8.77;;;4.10;;
65831;SDS011;52593;42.648;23.332;2023-05-29T05:15:28;11.27;;;3.88;;
65831;SDS011;52593;42.648;23.332;2023-05-29T05:17:53;11.33;;;4.00;;
65831;SDS011;52593;42.648;23.332;2023-05-29T05:20:19;12.47;;;5.13;;
65831;SDS011;52593;42.648;23.332;2023-05-29T05:22:44;14.70;;;5.93;;
65831;SDS011;52593;42.648;23.332;2023-05-29T05:25:10;14.80;;;5.55;;
65831;SDS011;52593;42.648;23.332;2023-05-29T05:27:36;12.93;;;5.67;;
65831;SDS011;52593;42.648;23.332;2023-05-29T05:30:03;18.17;;;7.45;;
65831;SDS011;52593;42.648;23.332;2023-05-29T05:32:29;18.45;;;8.60;;
65831;SDS011;52593;42.648;23.332;2023-05-29T05:34:54;23.20;;;5.97;;
65831;SDS011;52593;42.648;23.332;2023-05-29T05:37:20;12.07;;;5.60;;
65831;SDS011;52593;42.648;23.332;2023-05-29T05:39:48;15.68;;;5.82;;
65831;SDS011;52593;42.648;23.332;2023-05-29T05:42:14;12.10;;;5.00;;
65831;SDS011;52593;42.648;23.332;2023-05-29T05:44:39;15.73;;;5.33;;
65831;SDS011;52593;42.648;23.332;2023-05-29T05:47:05;10.32;;;4.10;;
65831;SDS011;52593;42.648;23.332;2023-05-29T05:49:30;9.37;;;3.60;;
65831;SDS011;52593;42.648;23.332;2023-05-29T05:51:56;7.63;;;3.40;;
65831;SDS011;52593;42.648;23.332;2023-05-29T05:54:21;9.50;;;3.53;;
65831;SDS011;52593;42.648;23.332;2023-05-29T05:56:46;8.93;;;3.58;;
65831;SDS011;52593;42.648;23.332;2023-05-29T05:59:12;7.67;;;3.20;;
65831;SDS011;52593;42.648;23.332;2023-05-29T06:01:39;8.83;;;3.37;;
65831;SDS011;52593;42.648;23.332;2023-05-29T06:04:06;10.68;;;3.78;;
65831;SDS011;52593;42.648;23.332;2023-05-29T06:06:31;12.07;;;4.37;;
65831;SDS011;52593;42.648;23.332;2023-05-29T06:08:57;8.65;;;3.88;;
65831;SDS011;52593;42.648;23.332;2023-05-29T06:11:23;8.63;;;3.30;;
65831;SDS011;52593;42.648;23.332;2023-05-29T06:13:51;10.07;;;3.60;;
65831;SDS011;52593;42.648;23.332;2023-05-29T06:16:17;8.33;;;3.17;;
65831;SDS011;52593;42.648;23.332;2023-05-29T06:18:43;11.77;;;4.53;;
65831;SDS011;52593;42.648;23.332;2023-05-29T06:21:09;13.45;;;7.90;;
65831;SDS011;52593;42.648;23.332;2023-05-29T06:23:34;14.07;;;5.47;;
65831;SDS011;52593;42.648;23.332;2023-05-29T06:26:01;16.27;;;8.23;;
65831;SDS011;52593;42.648;23.332;2023-05-29T06:28:28;8.70;;;3.70;;
65831;SDS011;52593;42.648;23.332;2023-05-29T06:30:53;14.67;;;4.90;;
65831;SDS011;52593;42.648;23.332;2023-05-29T06:33:19;7.77;;;3.57;;
65831;SDS011;52593;42.648;23.332;2023-05-29T06:35:46;9.90;;;4.22;;
65831;SDS011;52593;42.648;23.332;2023-05-29T06:38:12;7.03;;;3.80;;
65831;SDS011;52593;42.648;23.332;2023-05-29T06:40:38;5.57;;;2.60;;
65831;SDS011;52593;42.648;23.332;2023-05-29T06:43:04;9.05;;;3.95;;
65831;SDS011;52593;42.648;23.332;2023-05-29T06:45:29;9.33;;;3.20;;
65831;SDS011;52593;42.648;23.332;2023-05-29T06:47:54;11.60;;;5.20;;
65831;SDS011;52593;42.648;23.332;2023-05-29T06:50:20;10.83;;;2.80;;
65831;SDS011;52593;42.648;23.332;2023-05-29T06:52:45;9.93;;;2.30;;
65831;SDS011;52593;42.648;23.332;2023-05-29T06:55:11;8.47;;;4.60;;
65831;SDS011;52593;42.648;23.332;2023-05-29T06:57:36;10.43;;;3.65;;
65831;SDS011;52593;42.648;23.332;2023-05-29T07:00:03;10.00;;;2.53;;
65831;SDS011;52593;42.648;23.332;2023-05-29T07:02:32;5.15;;;2.22;;
65831;SDS011;52593;42.648;23.332;2023-05-29T07:04:57;7.10;;;2.20;;
65831;SDS011;52593;42.648;23.332;2023-05-29T07:07:23;5.57;;;2.00;;
65831;SDS011;52593;42.648;23.332;2023-05-29T07:09:48;7.57;;;2.97;;
65831;SDS011;52593;42.648;23.332;2023-05-29T07:12:14;5.05;;;1.90;;
65831;SDS011;52593;42.648;23.332;2023-05-29T07:14:39;4.70;;;1.40;;
65831;SDS011;52593;42.648;23.332;2023-05-29T07:17:05;5.40;;;1.80;;
65831;SDS011;52593;42.648;23.332;2023-05-29T07:19:30;4.88;;;2.00;;
65831;SDS011;52593;42.648;23.332;2023-05-29T07:21:57;5.22;;;1.80;;
65831;SDS011;52593;42.648;23.332;2023-05-29T07:24:23;5.40;;;2.20;;
65831;SDS011;52593;42.648;23.332;2023-05-29T07:26:48;8.63;;;2.43;;
65831;SDS011;52593;42.648;23.332;2023-05-29T07:29:14;6.88;;;2.78;;
65831;SDS011;52593;42.648;23.332;2023-05-29T07:31:41;4.97;;;2.10;;
65831;SDS011;52593;42.648;23.332;2023-05-29T07:34:07;7.83;;;2.33;;
65831;SDS011;52593;42.648;23.332;2023-05-29T07:36:32;7.63;;;2.57;;
65831;SDS011;52593;42.648;23.332;2023-05-29T07:38:58;6.43;;;2.30;;
65831;SDS011;52593;42.648;23.332;2023-05-29T07:41:23;6.87;;;2.40;;
65831;SDS011;52593;42.648;23.332;2023-05-29T07:43:49;6.37;;;2.50;;
65831;SDS011;52593;42.648;23.332;2023-05-29T07:46:17;7.28;;;2.20;;
65831;SDS011;52593;42.648;23.332;2023-05-29T07:48:43;6.72;;;3.15;;
65831;SDS011;52593;42.648;23.332;2023-05-29T07:51:08;11.67;;;5.07;;
65831;SDS011;52593;42.648;23.332;2023-05-29T07:53:35;8.20;;;3.30;;
65831;SDS011;52593;42.648;23.332;2023-05-29T07:56:00;6.43;;;2.70;;
65831;SDS011;52593;42.648;23.332;2023-05-29T07:58:26;6.17;;;2.40;;
65831;SDS011;52593;42.648;23.332;2023-05-29T08:00:52;5.82;;;2.58;;
65831;SDS011;52593;42.648;23.332;2023-05-29T08:03:18;6.90;;;2.47;;
65831;SDS011;52593;42.648;23.332;2023-05-29T08:05:44;6.72;;;2.50;;
65831;SDS011;52593;42.648;23.332;2023-05-29T08:08:09;8.13;;;2.83;;
65831;SDS011;52593;42.648;23.332;2023-05-29T08:10:37;12.48;;;4.65;;
65831;SDS011;52593;42.648;23.332;2023-05-29T08:13:03;10.20;;;4.30;;
65831;SDS011;52593;42.648;23.332;2023-05-29T08:15:29;9.90;;;3.70;;
65831;SDS011;52593;42.648;23.332;2023-05-29T08:17:56;8.52;;;2.60;;
65831;SDS011;52593;42.648;23.332;2023-05-29T08:20:21;6.43;;;2.70;;
65831;SDS011;52593;42.648;23.332;2023-05-29T08:22:46;7.27;;;2.50;;
65831;SDS011;52593;42.648;23.332;2023-05-29T08:25:12;5.87;;;2.23;;
65831;SDS011;52593;42.648;23.332;2023-05-29T08:27:37;5.70;;;2.30;;
65831;SDS011;52593;42.648;23.332;2023-05-29T08:30:03;5.97;;;2.17;;
65831;SDS011;52593;42.648;23.332;2023-05-29T08:32:29;7.85;;;3.40;;
65831;SDS011;52593;42.648;23.332;2023-05-29T08:34:54;7.47;;;2.30;;
65831;SDS011;52593;42.648;23.332;2023-05-29T08:37:20;6.03;;;2.23;;
65831;SDS011;52593;42.648;23.332;2023-05-29T08:39:45;6.07;;;2.00;;
65831;SDS011;52593;42.648;23.332;2023-05-29T08:42:16;5.93;;;2.33;;
65831;SDS011;52593;42.648;23.332;2023-05-29T08:44:46;7.40;;;2.38;;
65831;SDS011;52593;42.648;23.332;2023-05-29T08:47:16;8.17;;;3.40;;
65831;SDS011;52593;42.648;23.332;2023-05-29T08:49:46;7.90;;;2.65;;
65831;SDS011;52593;42.648;23.332;2023-05-29T08:52:24;8.23;;;2.50;;
65831;SDS011;52593;42.648;23.332;2023-05-29T08:54:53;6.72;;;2.40;;
65831;SDS011;52593;42.648;23.332;2023-05-29T08:57:19;6.15;;;2.30;;
65831;SDS011;52593;42.648;23.332;2023-05-29T08:59:45;5.73;;;2.17;;
65831;SDS011;52593;42.648;23.332;2023-05-29T09:02:14;8.32;;;2.70;;
65831;SDS011;52593;42.648;23.332;2023-05-29T09:04:43;7.50;;;2.42;;
65831;SDS011;52593;42.648;23.332;2023-05-29T09:07:17;5.25;;;2.25;;
65831;SDS011;52593;42.648;23.332;2023-05-29T09:09:44;9.35;;;2.60;;
65831;SDS011;52593;42.648;23.332;2023-05-29T09:12:13;5.93;;;2.30;;
65831;SDS011;52593;42.648;23.332;2023-05-29T09:14:40;9.15;;;2.85;;
65831;SDS011;52593;42.648;23.332;2023-05-29T09:17:07;7.32;;;2.40;;
65831;SDS011;52593;42.648;23.332;2023-05-29T09:19:33;5.63;;;2.40;;
65831;SDS011;52593;42.648;23.332;2023-05-29T09:22:04;5.63;;;2.10;;
65831;SDS011;52593;42.648;23.332;2023-05-29T09:24:32;7.93;;;2.20;;
65831;SDS011;52593;42.648;23.332;2023-05-29T09:26:59;8.18;;;2.70;;
65831;SDS011;52593;42.648;23.332;2023-05-29T09:29:26;6.40;;;2.40;;
65831;SDS011;52593;42.648;23.332;2023-05-29T09:31:58;6.18;;;2.35;;
65831;SDS011;52593;42.648;23.332;2023-05-29T09:34:24;5.10;;;2.30;;
65831;SDS011;52593;42.648;23.332;2023-05-29T09:36:51;5.90;;;2.37;;
65831;SDS011;52593;42.648;23.332;2023-05-29T09:39:17;6.10;;;2.58;;
65831;SDS011;52593;42.648;23.332;2023-05-29T09:41:44;6.20;;;2.28;;
65831;SDS011;52593;42.648;23.332;2023-05-29T09:44:11;9.48;;;2.60;;
65831;SDS011;52593;42.648;23.332;2023-05-29T09:46:38;5.63;;;2.35;;
65831;SDS011;52593;42.648;23.332;2023-05-29T09:49:08;11.40;;;5.70;;
65831;SDS011;52593;42.648;23.332;2023-05-29T09:51:36;6.45;;;2.55;;
65831;SDS011;52593;42.648;23.332;2023-05-29T09:54:15;6.80;;;3.10;;
65831;SDS011;52593;42.648;23.332;2023-05-29T09:56:44;6.05;;;2.47;;
65831;SDS011;52593;42.648;23.332;2023-05-29T09:59:11;6.90;;;2.63;;
65831;SDS011;52593;42.648;23.332;2023-05-29T10:01:38;6.07;;;2.43;;
65831;SDS011;52593;42.648;23.332;2023-05-29T10:04:06;6.03;;;2.50;;
65831;SDS011;52593;42.648;23.332;2023-05-29T10:06:32;7.05;;;2.65;;
65831;SDS011;52593;42.648;23.332;2023-05-29T10:09:00;6.57;;;2.70;;
65831;SDS011;52593;42.648;23.332;2023-05-29T10:11:28;5.87;;;2.67;;
65831;SDS011;52593;42.648;23.332;2023-05-29T10:13:55;14.73;;;2.90;;
65831;SDS011;52593;42.648;23.332;2023-05-29T10:16:22;9.15;;;2.67;;
65831;SDS011;52593;42.648;23.332;2023-05-29T10:18:58;5.82;;;2.50;;
65831;SDS011;52593;42.648;23.332;2023-05-29T10:21:27;6.90;;;2.60;;
65831;SDS011;52593;42.648;23.332;2023-05-29T10:23:53;6.33;;;2.50;;
65831;SDS011;52593;42.648;23.332;2023-05-29T10:26:21;5.47;;;2.22;;
65831;SDS011;52593;42.648;23.332;2023-05-29T10:39:47;6.13;;;2.55;;
65831;SDS011;52593;42.648;23.332;2023-05-29T10:45:03;6.85;;;2.35;;
65831;SDS011;52593;42.648;23.332;2023-05-29T10:47:30;7.33;;;2.37;;
65831;SDS011;52593;42.648;23.332;2023-05-29T10:50:02;8.10;;;2.42;;
65831;SDS011;52593;42.648;23.332;2023-05-29T10:52:31;7.17;;;2.93;;
65831;SDS011;52593;42.648;23.332;2023-05-29T10:54:57;7.57;;;3.20;;
65831;SDS011;52593;42.648;23.332;2023-05-29T10:57:23;8.10;;;2.87;;
65831;SDS011;52593;42.648;23.332;2023-05-29T11:00:07;8.07;;;2.95;;
65831;SDS011;52593;42.648;23.332;2023-05-29T11:02:44;8.65;;;3.47;;
65831;SDS011;52593;42.648;23.332;2023-05-29T11:07:52;12.38;;;3.45;;
65831;SDS011;52593;42.648;23.332;2023-05-29T11:13:23;8.88;;;3.50;;
65831;SDS011;52593;42.648;23.332;2023-05-29T11:18:41;7.07;;;2.58;;
65831;SDS011;52593;42.648;23.332;2023-05-29T11:23:57;8.43;;;3.10;;
65831;SDS011;52593;42.648;23.332;2023-05-29T11:26:26;7.30;;;3.50;;
65831;SDS011;52593;42.648;23.332;2023-05-29T11:28:52;7.93;;;3.13;;
65831;SDS011;52593;42.648;23.332;2023-05-29T11:31:17;7.30;;;2.97;;
65831;SDS011;52593;42.648;23.332;2023-05-29T11:33:48;9.63;;;3.20;;
65831;SDS011;52593;42.648;23.332;2023-05-29T11:36:16;6.82;;;3.00;;
65831;SDS011;52593;42.648;23.332;2023-05-29T11:38:43;8.10;;;2.92;;
65831;SDS011;52593;42.648;23.332;2023-05-29T11:41:08;6.10;;;3.07;;
65831;SDS011;52593;42.648;23.332;2023-05-29T11:43:34;7.03;;;2.90;;
65831;SDS011;52593;42.648;23.332;2023-05-29T11:46:00;6.37;;;2.87;;
65831;SDS011;52593;42.648;23.332;2023-05-29T11:48:25;6.70;;;2.92;;
65831;SDS011;52593;42.648;23.332;2023-05-29T11:50:51;6.37;;;2.60;;
65831;SDS011;52593;42.648;23.332;2023-05-29T11:53:16;6.27;;;2.67;;
65831;SDS011;52593;42.648;23.332;2023-05-29T11:55:41;6.93;;;2.77;;
65831;SDS011;52593;42.648;23.332;2023-05-29T11:58:08;5.35;;;2.50;;
65831;SDS011;52593;42.648;23.332;2023-05-29T12:00:38;7.87;;;2.97;;
65831;SDS011;52593;42.648;23.332;2023-05-29T12:03:05;10.27;;;3.40;;
65831;SDS011;52593;42.648;23.332;2023-05-29T12:05:45;10.27;;;3.30;;
65831;SDS011;52593;42.648;23.332;2023-05-29T12:08:14;11.10;;;3.70;;
65831;SDS011;52593;42.648;23.332;2023-05-29T12:10:46;8.80;;;3.90;;
65831;SDS011;52593;42.648;23.332;2023-05-29T12:13:13;9.93;;;3.75;;
65831;SDS011;52593;42.648;23.332;2023-05-29T12:15:39;9.55;;;3.58;;
65831;SDS011;52593;42.648;23.332;2023-05-29T12:18:05;11.30;;;6.30;;
65831;SDS011;52593;42.648;23.332;2023-05-29T12:20:30;5.83;;;2.23;;
65831;SDS011;52593;42.648;23.332;2023-05-29T12:22:59;7.67;;;3.00;;
65831;SDS011;52593;42.648;23.332;2023-05-29T12:25:26;8.70;;;3.00;;
65831;SDS011;52593;42.648;23.332;2023-05-29T12:27:52;8.20;;;2.80;;
65831;SDS011;52593;42.648;23.332;2023-05-29T12:30:21;7.03;;;3.17;;
65831;SDS011;52593;42.648;23.332;2023-05-29T12:32:48;8.50;;;3.17;;
65831;SDS011;52593;42.648;23.332;2023-05-29T12:35:16;9.13;;;3.83;;
65831;SDS011;52593;42.648;23.332;2023-05-29T12:37:55;7.30;;;3.50;;
65831;SDS011;52593;42.648;23.332;2023-05-29T12:40:28;14.43;;;6.75;;
65831;SDS011;52593;42.648;23.332;2023-05-29T12:45:24;8.40;;;4.57;;
65831;SDS011;52593;42.648;23.332;2023-05-29T12:47:52;10.93;;;4.78;;
65831;SDS011;52593;42.648;23.332;2023-05-29T12:50:29;7.57;;;3.60;;
65831;SDS011;52593;42.648;23.332;2023-05-29T12:53:02;9.65;;;3.50;;
65831;SDS011;52593;42.648;23.332;2023-05-29T12:55:38;11.30;;;3.50;;
65831;SDS011;52593;42.648;23.332;2023-05-29T12:58:07;12.88;;;4.55;;
65831;SDS011;52593;42.648;23.332;2023-05-29T13:00:34;10.57;;;5.75;;
65831;SDS011;52593;42.648;23.332;2023-05-29T13:03:00;11.02;;;3.88;;
65831;SDS011;52593;42.648;23.332;2023-05-29T13:05:26;11.57;;;3.80;;
65831;SDS011;52593;42.648;23.332;2023-05-29T13:07:52;8.93;;;3.50;;
65831;SDS011;52593;42.648;23.332;2023-05-29T13:10:18;7.82;;;3.60;;
65831;SDS011;52593;42.648;23.332;2023-05-29T13:12:44;6.82;;;3.22;;
65831;SDS011;52593;42.648;23.332;2023-05-29T13:15:11;9.07;;;3.20;;
65831;SDS011;52593;42.648;23.332;2023-05-29T13:17:38;9.80;;;2.80;;
65831;SDS011;52593;42.648;23.332;2023-05-29T13:22:35;8.65;;;3.35;;
65831;SDS011;52593;42.648;23.332;2023-05-29T13:25:01;9.10;;;3.20;;
65831;SDS011;52593;42.648;23.332;2023-05-29T13:27:26;8.90;;;3.15;;
65831;SDS011;52593;42.648;23.332;2023-05-29T13:29:52;7.90;;;2.90;;
65831;SDS011;52593;42.648;23.332;2023-05-29T13:32:19;7.85;;;3.22;;
65831;SDS011;52593;42.648;23.332;2023-05-29T13:34:45;8.82;;;3.05;;
65831;SDS011;52593;42.648;23.332;2023-05-29T13:37:10;8.47;;;3.50;;
65831;SDS011;52593;42.648;23.332;2023-05-29T13:39:35;9.67;;;3.70;;
65831;SDS011;52593;42.648;23.332;2023-05-29T13:42:01;10.20;;;4.00;;
65831;SDS011;52593;42.648;23.332;2023-05-29T13:44:26;9.05;;;4.00;;
65831;SDS011;52593;42.648;23.332;2023-05-29T13:46:52;9.57;;;3.77;;
65831;SDS011;52593;42.648;23.332;2023-05-29T13:49:17;8.50;;;3.90;;
65831;SDS011;52593;42.648;23.332;2023-05-29T13:51:43;8.40;;;3.90;;
65831;SDS011;52593;42.648;23.332;2023-05-29T13:54:11;9.70;;;3.95;;
65831;SDS011;52593;42.648;23.332;2023-05-29T13:56:36;9.93;;;3.93;;
65831;SDS011;52593;42.648;23.332;2023-05-29T13:59:02;9.20;;;3.90;;
65831;SDS011;52593;42.648;23.332;2023-05-29T14:01:30;9.65;;;3.90;;
65831;SDS011;52593;42.648;23.332;2023-05-29T14:03:57;7.20;;;3.70;;
65831;SDS011;52593;42.648;23.332;2023-05-29T14:06:22;8.70;;;3.73;;
65831;SDS011;52593;42.648;23.332;2023-05-29T14:08:47;7.17;;;3.20;;
65831;SDS011;52593;42.648;23.332;2023-05-29T14:11:13;7.53;;;3.33;;
65831;SDS011;52593;42.648;23.332;2023-05-29T14:13:38;10.13;;;3.30;;
65831;SDS011;52593;42.648;23.332;2023-05-29T14:16:04;9.13;;;4.13;;
65831;SDS011;52593;42.648;23.332;2023-05-29T14:18:29;6.83;;;2.67;;
65831;SDS011;52593;42.648;23.332;2023-05-29T14:20:55;5.53;;;2.50;;
65831;SDS011;52593;42.648;23.332;2023-05-29T14:23:20;6.33;;;2.80;;
65831;SDS011;52593;42.648;23.332;2023-05-29T14:25:46;5.43;;;2.50;;
65831;SDS011;52593;42.648;23.332;2023-05-29T14:28:11;7.97;;;2.50;;
65831;SDS011;52593;42.648;23.332;2023-05-29T14:30:37;9.80;;;2.63;;
65831;SDS011;52593;42.648;23.332;2023-05-29T14:33:02;6.43;;;2.80;;
65831;SDS011;52593;42.648;23.332;2023-05-29T14:35:28;6.85;;;3.03;;
65831;SDS011;52593;42.648;23.332;2023-05-29T14:37:54;5.53;;;2.00;;
65831;SDS011;52593;42.648;23.332;2023-05-29T14:40:19;5.13;;;1.80;;
65831;SDS011;52593;42.648;23.332;2023-05-29T14:42:45;4.37;;;1.50;;
65831;SDS011;52593;42.648;23.332;2023-05-29T14:45:10;5.63;;;2.00;;
65831;SDS011;52593;42.648;23.332;2023-05-29T14:47:36;3.50;;;1.40;;
65831;SDS011;52593;42.648;23.332;2023-05-29T14:50:01;6.43;;;1.70;;
65831;SDS011;52593;42.648;23.332;2023-05-29T14:52:27;4.90;;;1.60;;
65831;SDS011;52593;42.648;23.332;2023-05-29T14:54:52;4.90;;;1.53;;
65831;SDS011;52593;42.648;23.332;2023-05-29T14:57:18;6.00;;;1.63;;
65831;SDS011;52593;42.648;23.332;2023-05-29T14:59:43;9.23;;;5.47;;
65831;SDS011;52593;42.648;23.332;2023-05-29T15:02:08;5.17;;;2.20;;
65831;SDS011;52593;42.648;23.332;2023-05-29T15:04:34;4.22;;;2.00;;
65831;SDS011;52593;42.648;23.332;2023-05-29T15:07:00;7.35;;;2.20;;